createdAt,value
2022-08-05T00:01:35.928Z,7.50
2022-08-05T00:04:08.383Z,8.00
2022-08-05T00:06:37.080Z,7.70
2022-08-05T00:09:12.762Z,7.90
2022-08-05T00:11:48.804Z,7.60
2022-08-05T00:14:27.667Z,7.50
2022-08-05T00:16:58.014Z,7.40
2022-08-05T00:19:33.305Z,7.40
2022-08-05T00:22:11.775Z,7.30
2022-08-05T00:24:42.438Z,7.50
2022-08-05T00:27:28.542Z,7.60
2022-08-05T00:30:00.452Z,7.80
2022-08-05T00:32:31.669Z,8.00
2022-08-05T00:35:06.646Z,7.00
2022-08-05T00:37:51.159Z,8.00
2022-08-05T00:40:27.361Z,8.40
2022-08-05T00:43:01.745Z,7.50
2022-08-05T00:45:38.537Z,8.00
2022-08-05T00:48:10.196Z,7.80
2022-08-05T00:50:44.087Z,7.60
2022-08-05T00:53:59.959Z,8.20
2022-08-05T00:56:02.833Z,8.00
2022-08-05T00:58:31.459Z,7.70
2022-08-05T01:00:59.925Z,7.80
2022-08-05T01:03:30.929Z,8.00
2022-08-05T01:06:05.499Z,8.00
2022-08-05T01:08:43.184Z,7.90
2022-08-05T01:11:33.859Z,8.00
2022-08-05T01:14:16.332Z,8.60
2022-08-05T01:16:54.852Z,8.80
2022-08-05T01:19:46.331Z,8.10
2022-08-05T01:22:34.131Z,8.50
2022-08-05T01:25:02.292Z,8.80
2022-08-05T01:28:00.540Z,8.20
2022-08-05T01:30:35.050Z,7.90
2022-08-05T01:33:08.646Z,8.30
2022-08-05T01:35:52.239Z,8.00
2022-08-05T01:38:27.241Z,7.50
2022-08-05T01:41:00.034Z,7.40
2022-08-05T01:43:31.830Z,9.00
2022-08-05T01:46:07.190Z,8.70
2022-08-05T01:48:49.458Z,8.00
2022-08-05T01:51:19.707Z,7.70
2022-08-05T01:53:58.004Z,8.20
2022-08-05T01:58:09.771Z,9.10
2022-08-05T01:59:23.641Z,8.70
2022-08-05T02:01:55.578Z,8.10
2022-08-05T02:04:29.077Z,9.30
2022-08-05T02:06:59.187Z,8.20
2022-08-05T02:09:28.148Z,9.20
2022-08-05T02:12:14.041Z,8.40
2022-08-05T02:14:49.835Z,8.60
2022-08-05T02:18:28.686Z,8.00
2022-08-05T02:20:20.932Z,8.00
2022-08-05T02:23:03.283Z,7.90
2022-08-05T02:25:49.573Z,8.70
2022-08-05T02:28:29.059Z,8.80
2022-08-05T02:31:06.114Z,9.80
2022-08-05T02:33:41.014Z,9.20
2022-08-05T02:36:13.528Z,9.30
2022-08-05T02:38:53.259Z,9.20
2022-08-05T02:41:29.017Z,9.60
2022-08-05T02:44:11.891Z,8.70
2022-08-05T02:46:44.035Z,9.30
2022-08-05T02:49:37.079Z,9.10
2022-08-05T02:52:26.038Z,9.30
2022-08-05T02:55:05.139Z,9.00
2022-08-05T02:58:11.047Z,9.70
2022-08-05T03:00:25.273Z,9.00
2022-08-05T03:02:56.563Z,9.10
2022-08-05T03:06:56.734Z,8.50
2022-08-05T03:08:14.783Z,9.20
2022-08-05T03:11:01.311Z,10.00
2022-08-05T03:13:51.187Z,9.40
2022-08-05T03:16:22.829Z,10.00
2022-08-05T03:18:51.558Z,10.20
2022-08-05T03:21:22.598Z,9.80
2022-08-05T03:23:58.262Z,9.80
2022-08-05T03:26:31.918Z,9.90
2022-08-05T03:29:01.511Z,9.90
2022-08-05T03:31:55.469Z,9.90
2022-08-05T03:34:19.641Z,10.10
2022-08-05T03:36:52.935Z,10.10
2022-08-05T03:39:27.259Z,9.00
2022-08-05T03:41:57.120Z,10.40
2022-08-05T03:44:28.900Z,10.20
2022-08-05T03:46:57.339Z,11.10
2022-08-05T03:49:31.185Z,9.90
2022-08-05T03:52:49.296Z,9.90
2022-08-05T03:56:04.906Z,9.00
2022-08-05T03:58:15.522Z,9.70
2022-08-05T04:00:51.494Z,9.80
2022-08-05T04:03:28.479Z,9.10
2022-08-05T04:05:59.249Z,8.60
2022-08-05T04:08:36.427Z,8.80
2022-08-05T04:11:08.606Z,9.60
2022-08-05T04:13:51.376Z,8.90
2022-08-05T04:16:24.104Z,9.90
2022-08-05T04:18:54.761Z,9.40
2022-08-05T04:22:09.431Z,10.20
2022-08-05T04:24:19.107Z,9.70
2022-08-05T04:26:50.889Z,9.00
2022-08-05T04:29:21.007Z,8.80
2022-08-05T04:31:49.744Z,9.10
2022-08-05T04:34:32.839Z,9.80
2022-08-05T04:37:03.153Z,9.40
2022-08-05T04:39:32.414Z,9.10
2022-08-05T04:42:04.110Z,9.10
2022-08-05T04:44:32.391Z,9.10
2022-08-05T04:47:09.848Z,9.10
2022-08-05T04:50:02.086Z,9.60
2022-08-05T04:52:28.379Z,9.50
2022-08-05T04:54:57.283Z,9.50
2022-08-05T04:57:28.606Z,9.70
2022-08-05T04:59:58.625Z,8.70
2022-08-05T05:02:41.112Z,8.80
2022-08-05T05:05:16.737Z,9.00
2022-08-05T05:08:02.891Z,9.40
2022-08-05T05:10:33.831Z,8.30
2022-08-05T05:13:04.360Z,8.60
2022-08-05T05:15:56.866Z,8.20
2022-08-05T05:18:31.441Z,9.20
2022-08-05T05:21:05.540Z,8.60
2022-08-05T05:24:02.205Z,8.70
2022-08-05T05:26:28.768Z,7.90
2022-08-05T05:29:14.493Z,8.70
2022-08-05T05:31:46.489Z,9.00
2022-08-05T05:34:15.419Z,8.40
2022-08-05T05:36:44.206Z,9.00
2022-08-05T05:39:15.485Z,8.90
2022-08-05T05:41:54.488Z,8.50
2022-08-05T05:44:36.443Z,8.70
2022-08-05T05:47:13.163Z,8.00
2022-08-05T05:49:56.571Z,8.20
2022-08-05T05:52:29.813Z,8.00
2022-08-05T05:55:07.364Z,8.30
2022-08-05T05:57:52.031Z,8.20
2022-08-05T06:00:31.510Z,7.80
2022-08-05T06:03:03.603Z,8.20
2022-08-05T06:05:54.264Z,8.10
2022-08-05T06:08:32.241Z,8.10
2022-08-05T06:11:01.674Z,7.70
2022-08-05T06:13:40.527Z,8.30
2022-08-05T06:16:31.517Z,7.90
2022-08-05T06:19:01.985Z,7.30
2022-08-05T06:21:36.569Z,7.60
2022-08-05T06:24:11.518Z,9.10
2022-08-05T06:26:52.072Z,7.90
2022-08-05T06:29:23.697Z,7.50
2022-08-05T06:32:25.013Z,7.40
2022-08-05T06:34:57.099Z,7.40
2022-08-05T06:37:56.273Z,6.80
2022-08-05T06:40:21.111Z,7.00
2022-08-05T06:42:53.565Z,6.80
2022-08-05T06:45:55.483Z,6.70
2022-08-05T06:48:46.945Z,6.80
2022-08-05T06:51:00.402Z,6.60
2022-08-05T06:53:30.172Z,7.10
2022-08-05T06:56:25.650Z,6.90
2022-08-05T06:58:56.545Z,7.00
2022-08-05T07:01:32.092Z,6.80
2022-08-05T07:04:03.154Z,7.00
2022-08-05T07:06:32.288Z,7.00
2022-08-05T07:09:04.357Z,7.10
2022-08-05T07:11:36.920Z,7.30
2022-08-05T07:14:29.294Z,7.00
2022-08-05T07:18:01.163Z,7.10
2022-08-05T07:20:31.603Z,6.50
2022-08-05T07:22:43.930Z,6.50
2022-08-05T07:25:53.904Z,6.70
2022-08-05T07:28:08.209Z,6.20
2022-08-05T07:30:40.318Z,6.90
2022-08-05T07:33:15.730Z,6.40
2022-08-05T07:36:02.115Z,6.70
2022-08-05T07:38:43.217Z,6.60
2022-08-05T07:42:14.448Z,6.30
2022-08-05T07:44:25.912Z,6.90
2022-08-05T07:46:56.445Z,6.50
2022-08-05T07:49:28.637Z,6.60
2022-08-05T07:51:59.428Z,6.90
2022-08-05T07:54:33.652Z,6.60
2022-08-05T07:57:13.916Z,6.70
2022-08-05T07:59:55.278Z,6.30
2022-08-05T08:02:31.330Z,6.40
2022-08-05T08:05:19.954Z,5.70
2022-08-05T08:08:00.188Z,6.10
2022-08-05T08:10:34.978Z,6.20
2022-08-05T08:13:07.814Z,6.30
2022-08-05T08:16:34.532Z,6.50
2022-08-05T08:18:39.985Z,5.90
2022-08-05T08:21:17.433Z,6.20
2022-08-05T08:24:01.885Z,6.50
2022-08-05T08:26:33.708Z,5.90
2022-08-05T08:29:29.303Z,6.40
2022-08-05T08:31:57.269Z,6.30
2022-08-05T08:34:30.448Z,6.60
2022-08-05T08:37:07.073Z,6.60
2022-08-05T08:39:38.274Z,5.50
2022-08-05T08:42:33.690Z,5.70
2022-08-05T08:45:19.669Z,5.80
2022-08-05T08:48:11.757Z,7.80
2022-08-05T08:51:04.084Z,5.60
2022-08-05T08:53:45.027Z,4.90
2022-08-05T08:56:14.990Z,5.20
2022-08-05T08:58:47.682Z,5.10
2022-08-05T09:01:22.105Z,4.70
2022-08-05T09:03:57.576Z,4.80
2022-08-05T09:06:36.205Z,5.20
2022-08-05T09:09:06.478Z,5.20
2022-08-05T09:11:51.025Z,5.00
2022-08-05T09:14:56.816Z,4.90
2022-08-05T09:17:40.188Z,4.70
2022-08-05T09:20:05.950Z,4.80
2022-08-05T09:23:19.756Z,6.50
2022-08-05T09:26:02.375Z,5.40
2022-08-05T09:28:36.137Z,5.70
2022-08-05T09:31:44.192Z,5.40
2022-08-05T09:34:09.796Z,5.00
2022-08-05T09:36:54.954Z,5.30
2022-08-05T09:39:45.434Z,4.80
2022-08-05T09:42:24.002Z,4.80
2022-08-05T09:46:04.821Z,4.70
2022-08-05T09:47:56.752Z,5.10
2022-08-05T09:50:44.435Z,5.40
2022-08-05T09:53:23.074Z,4.70
2022-08-05T09:56:04.967Z,5.30
2022-08-05T09:58:42.011Z,4.60
2022-08-05T10:01:22.674Z,4.80
2022-08-05T10:04:12.663Z,4.90
2022-08-05T10:06:59.131Z,5.00
2022-08-05T10:09:29.878Z,5.00
2022-08-05T10:12:18.589Z,4.80
2022-08-05T10:15:21.046Z,4.50
2022-08-05T10:18:07.014Z,5.00
2022-08-05T10:20:41.924Z,5.00
2022-08-05T10:23:34.007Z,5.00
2022-08-05T10:26:07.366Z,5.50
2022-08-05T10:28:45.083Z,5.10
2022-08-05T10:32:55.160Z,5.20
2022-08-05T10:34:08.309Z,4.40
2022-08-05T10:36:39.803Z,4.70
2022-08-05T10:39:24.161Z,4.90
2022-08-05T10:42:08.239Z,4.90
2022-08-05T10:44:46.425Z,4.90
2022-08-05T10:47:26.289Z,4.80
2022-08-05T10:50:32.196Z,4.90
2022-08-05T10:53:00.551Z,4.70
2022-08-05T10:55:38.462Z,6.90
2022-08-05T10:58:20.942Z,5.10
2022-08-05T11:00:55.476Z,4.60
2022-08-05T11:03:31.732Z,4.50
2022-08-05T11:06:05.804Z,4.60
2022-08-05T11:08:39.350Z,4.60
2022-08-05T11:11:44.592Z,4.40
2022-08-05T11:14:56.343Z,4.90
2022-08-05T11:17:57.499Z,4.70
2022-08-05T11:20:33.099Z,4.20
2022-08-05T11:23:06.116Z,4.10
2022-08-05T11:26:05.971Z,4.40
2022-08-05T11:28:36.044Z,4.60
2022-08-05T11:31:07.790Z,4.80
2022-08-05T11:33:52.592Z,4.90
2022-08-05T11:36:42.736Z,4.70
2022-08-05T11:39:14.467Z,4.80
2022-08-05T11:42:00.632Z,4.90
2022-08-05T11:44:53.123Z,4.50
2022-08-05T11:47:48.683Z,4.70
2022-08-05T11:50:15.770Z,4.50
2022-08-05T11:52:46.137Z,4.40
2022-08-05T11:55:17.525Z,4.10
2022-08-05T11:58:09.999Z,4.60
2022-08-05T12:00:38.496Z,4.70
2022-08-05T12:03:42.116Z,4.70
2022-08-05T12:06:28.972Z,4.00
2022-08-05T12:09:00.694Z,4.20
2022-08-05T12:11:40.080Z,4.50
2022-08-05T12:14:10.824Z,4.50
2022-08-05T12:16:58.680Z,4.30
2022-08-05T12:20:25.469Z,4.40
2022-08-05T12:22:49.328Z,3.80
2022-08-05T12:25:23.691Z,4.30
2022-08-05T12:27:59.048Z,3.90
2022-08-05T12:30:39.175Z,3.80
2022-08-05T12:33:27.328Z,4.60
2022-08-05T12:35:58.163Z,4.30
2022-08-05T12:38:31.400Z,4.00
2022-08-05T12:41:00.944Z,4.20
2022-08-05T12:43:32.067Z,3.90
2022-08-05T12:46:06.791Z,4.20
2022-08-05T12:48:44.284Z,4.30
2022-08-05T12:52:10.643Z,4.40
2022-08-05T12:54:14.723Z,4.90
2022-08-05T12:57:09.562Z,4.00
2022-08-05T13:01:57.535Z,3.90
2022-08-05T13:02:50.874Z,4.10
2022-08-05T13:05:37.387Z,4.30
2022-08-05T13:08:08.659Z,4.60
2022-08-05T13:10:50.286Z,4.50
2022-08-05T13:14:04.667Z,4.50
2022-08-05T13:16:15.310Z,3.90
2022-08-05T13:18:57.883Z,4.40
2022-08-05T13:21:47.974Z,3.90
2022-08-05T13:24:27.624Z,4.40
2022-08-05T13:27:11.064Z,4.10
2022-08-05T13:30:32.664Z,4.70
2022-08-05T13:32:39.504Z,4.20
2022-08-05T13:35:12.203Z,4.60
2022-08-05T13:37:43.769Z,4.30
2022-08-05T13:40:35.595Z,4.10
2022-08-05T13:43:02.846Z,4.50
2022-08-05T13:45:38.518Z,4.90
2022-08-05T13:48:58.742Z,3.90
2022-08-05T13:51:12.240Z,4.40
2022-08-05T13:53:48.076Z,4.50
2022-08-05T13:56:18.407Z,4.00
2022-08-05T13:58:53.123Z,4.10
2022-08-05T14:01:27.413Z,4.50
2022-08-05T14:04:29.976Z,4.20
2022-08-05T14:07:25.179Z,4.30
2022-08-05T14:09:47.919Z,4.30
2022-08-05T14:12:32.159Z,4.10
2022-08-05T14:16:05.681Z,4.90
2022-08-05T14:17:55.036Z,5.00
2022-08-05T14:20:32.754Z,4.40
2022-08-05T14:23:01.964Z,4.50
2022-08-05T14:25:32.098Z,4.10
2022-08-05T14:28:00.571Z,4.90
2022-08-05T14:30:29.856Z,4.30
2022-08-05T14:32:59.064Z,3.80
2022-08-05T14:35:36.962Z,4.60
2022-08-05T14:38:31.787Z,4.40
2022-08-05T14:41:07.770Z,4.30
2022-08-05T14:43:59.127Z,4.60
2022-08-05T14:46:29.550Z,4.70
2022-08-05T14:49:07.000Z,4.80
2022-08-05T14:51:42.819Z,4.50
2022-08-05T14:54:27.892Z,4.20
2022-08-05T14:56:59.669Z,4.90
2022-08-05T14:59:35.705Z,4.80
2022-08-05T15:02:14.646Z,4.50
2022-08-05T15:04:47.783Z,4.60
2022-08-05T15:08:08.873Z,4.80
2022-08-05T15:10:09.710Z,4.60
2022-08-05T15:12:59.756Z,4.90
2022-08-05T15:15:55.434Z,4.70
2022-08-05T15:18:20.822Z,4.60
2022-08-05T15:20:50.913Z,4.40
2022-08-05T15:23:22.127Z,4.90
2022-08-05T15:25:56.613Z,4.60
2022-08-05T15:28:28.827Z,4.60
2022-08-05T15:31:00.431Z,5.00
2022-08-05T15:34:18.495Z,4.60
2022-08-05T15:36:24.606Z,4.50
2022-08-05T15:41:01.709Z,4.70
2022-08-05T15:41:58.420Z,4.50
2022-08-05T15:44:30.427Z,4.20
2022-08-05T15:47:02.050Z,4.70
2022-08-05T15:49:48.137Z,4.80
2022-08-05T15:52:29.545Z,4.70
2022-08-05T15:55:15.728Z,4.30
2022-08-05T15:57:49.073Z,4.40
2022-08-05T16:00:25.817Z,4.30
2022-08-05T16:03:04.756Z,4.90
2022-08-05T16:05:36.070Z,5.30
2022-08-05T16:08:16.037Z,4.30
2022-08-05T16:10:47.296Z,4.60
2022-08-05T16:13:23.595Z,4.40
2022-08-05T16:15:56.213Z,4.60
2022-08-05T16:18:31.058Z,4.50
2022-08-05T16:21:05.225Z,5.00
2022-08-05T16:23:53.796Z,4.90
2022-08-05T16:26:26.530Z,4.40
2022-08-05T16:28:56.663Z,4.40
2022-08-05T16:31:26.264Z,5.10
2022-08-05T16:34:25.231Z,4.30
2022-08-05T16:37:00.922Z,4.80
2022-08-05T16:40:04.484Z,4.70
2022-08-05T16:42:28.239Z,4.90
2022-08-05T16:45:01.177Z,4.70
2022-08-05T16:47:48.279Z,4.80
2022-08-05T16:50:33.062Z,4.90
2022-08-05T16:53:12.690Z,5.00
2022-08-05T16:55:54.156Z,4.70
2022-08-05T16:58:26.325Z,4.60
2022-08-05T17:00:55.585Z,4.70
2022-08-05T17:03:25.730Z,4.60
2022-08-05T17:05:59.729Z,4.90
2022-08-05T17:08:36.748Z,4.80
2022-08-05T17:11:26.770Z,4.80
2022-08-05T17:14:13.123Z,4.70
2022-08-05T17:16:53.383Z,4.80
2022-08-05T17:19:22.467Z,4.90
2022-08-05T17:21:51.509Z,4.60
2022-08-05T17:24:35.313Z,5.00
2022-08-05T17:27:09.425Z,5.00
2022-08-05T17:29:41.261Z,4.90
2022-08-05T17:32:17.048Z,4.70
2022-08-05T17:34:47.783Z,5.10
2022-08-05T17:37:40.721Z,4.80
2022-08-05T17:40:12.113Z,5.50
2022-08-05T17:42:51.282Z,5.80
2022-08-05T17:45:38.268Z,5.20
2022-08-05T17:48:08.285Z,5.60
2022-08-05T17:50:37.168Z,6.00
2022-08-05T17:53:08.423Z,5.20
2022-08-05T17:55:39.961Z,4.60
2022-08-05T17:58:12.648Z,5.40
2022-08-05T18:00:45.366Z,5.90
2022-08-05T18:03:48.459Z,5.10
2022-08-05T18:06:11.691Z,5.40
2022-08-05T18:08:52.462Z,5.40
2022-08-05T18:11:32.421Z,5.70
2022-08-05T18:14:06.575Z,5.00
2022-08-05T18:16:49.609Z,5.90
2022-08-05T18:19:30.048Z,5.40
2022-08-05T18:22:08.805Z,7.10
2022-08-05T18:24:53.719Z,6.70
2022-08-05T18:27:23.307Z,7.30
2022-08-05T18:29:54.767Z,5.90
2022-08-05T18:32:28.433Z,7.40
2022-08-05T18:34:58.613Z,7.00
2022-08-05T18:37:33.995Z,6.80
2022-08-05T18:41:49.926Z,7.20
2022-08-05T18:43:03.396Z,7.90
2022-08-05T18:45:41.511Z,5.90
2022-08-05T18:48:30.170Z,7.30
2022-08-05T18:52:05.820Z,7.60
2022-08-05T18:54:12.600Z,6.30
2022-08-05T18:56:41.802Z,6.60
2022-08-05T18:59:42.778Z,6.50
2022-08-05T19:02:36.606Z,5.90
2022-08-05T19:06:06.160Z,7.60
2022-08-05T19:07:58.416Z,7.80
2022-08-05T19:10:30.544Z,6.00
2022-08-05T19:12:59.287Z,7.10
2022-08-05T19:15:56.825Z,7.70
2022-08-05T19:18:22.209Z,6.60
2022-08-05T19:20:52.614Z,5.70
2022-08-05T19:24:07.245Z,6.30
2022-08-05T19:26:14.101Z,7.30
2022-08-05T19:28:43.827Z,6.40
2022-08-05T19:31:17.908Z,5.30
2022-08-05T19:33:56.312Z,5.10
2022-08-05T19:36:26.771Z,4.40
2022-08-05T19:39:00.748Z,4.70
2022-08-05T19:41:58.386Z,4.50
2022-08-05T19:44:19.870Z,4.30
2022-08-05T19:46:50.163Z,4.50
2022-08-05T19:49:19.197Z,5.20
2022-08-05T19:52:05.131Z,3.90
2022-08-05T19:54:37.578Z,4.20
2022-08-05T19:57:09.119Z,4.30
2022-08-05T19:59:59.564Z,4.30
2022-08-05T20:02:32.742Z,4.90
2022-08-05T20:05:05.222Z,4.60
2022-08-05T20:07:47.312Z,5.20
2022-08-05T20:10:22.140Z,4.40
2022-08-05T20:12:56.535Z,4.70
2022-08-05T20:15:52.407Z,4.70
2022-08-05T20:18:33.847Z,5.20
2022-08-05T20:21:06.708Z,4.50
2022-08-05T20:23:50.049Z,4.20
2022-08-05T20:26:28.352Z,3.90
2022-08-05T20:29:00.743Z,4.60
2022-08-05T20:31:41.967Z,4.40
2022-08-05T20:34:20.180Z,5.30
2022-08-05T20:36:50.115Z,5.00
2022-08-05T20:39:23.448Z,5.40
2022-08-05T20:41:55.031Z,4.10
2022-08-05T20:44:37.843Z,5.20
2022-08-05T20:47:07.846Z,5.00
2022-08-05T20:49:40.203Z,4.60
2022-08-05T20:52:12.486Z,4.30
2022-08-05T20:55:54.399Z,4.80
2022-08-05T20:57:43.009Z,4.30
2022-08-05T21:00:40.377Z,4.60
2022-08-05T21:07:19.614Z,5.20
2022-08-05T21:09:53.829Z,4.40
2022-08-05T21:12:26.689Z,4.40
2022-08-05T21:14:56.368Z,5.30
2022-08-05T21:17:28.505Z,4.60
2022-08-05T21:19:57.757Z,4.10
2022-08-05T21:22:28.643Z,3.60
2022-08-05T21:24:57.766Z,4.10
2022-08-05T21:27:27.293Z,4.40
2022-08-05T21:29:58.662Z,4.70
2022-08-05T21:32:32.186Z,4.40
2022-08-05T21:35:08.760Z,4.90
2022-08-05T21:37:53.443Z,4.40
2022-08-05T21:40:24.821Z,4.40
2022-08-05T21:42:54.535Z,4.90
2022-08-05T21:58:16.748Z,4.00
2022-08-05T22:00:51.222Z,3.70
2022-08-05T22:03:48.946Z,4.00
2022-08-05T22:06:10.139Z,3.80
2022-08-05T22:08:42.838Z,3.70
2022-08-05T22:11:15.891Z,3.70
2022-08-05T22:14:33.608Z,4.20
2022-08-05T22:18:58.511Z,4.90
2022-08-05T22:21:27.909Z,4.10
2022-08-05T22:24:40.593Z,4.40
2022-08-05T22:27:24.190Z,4.90
2022-08-05T22:30:17.196Z,4.40
2022-08-05T22:32:47.449Z,4.50
2022-08-05T22:35:20.347Z,5.10
2022-08-05T22:38:00.089Z,5.20
2022-08-05T22:40:30.636Z,5.20
2022-08-05T22:43:00.368Z,5.40
2022-08-05T22:45:32.282Z,6.00
2022-08-05T22:48:01.898Z,5.50
2022-08-05T22:50:30.785Z,5.70
2022-08-05T22:52:58.981Z,5.60
2022-08-05T22:55:27.758Z,5.10
2022-08-05T22:58:16.090Z,4.90
2022-08-05T23:00:56.970Z,5.60
2022-08-05T23:03:59.099Z,5.50
2022-08-05T23:06:13.912Z,5.00
2022-08-05T23:08:50.362Z,5.20
2022-08-05T23:11:21.345Z,5.00
2022-08-05T23:13:51.769Z,4.40
2022-08-05T23:16:44.042Z,5.50
2022-08-05T23:19:23.771Z,6.00
2022-08-05T23:21:54.852Z,5.50
2022-08-05T23:24:23.627Z,3.90
2022-08-05T23:26:52.509Z,4.50
2022-08-05T23:29:22.281Z,4.70
2022-08-05T23:31:56.566Z,5.60
2022-08-05T23:34:25.456Z,5.50
2022-08-05T23:36:54.798Z,4.90
2022-08-05T23:39:32.573Z,5.00
2022-08-05T23:42:24.366Z,5.70
2022-08-05T23:44:59.007Z,5.50
2022-08-05T23:47:28.263Z,5.20
2022-08-05T23:50:02.491Z,6.00
2022-08-05T23:52:49.829Z,5.60
2022-08-05T23:55:19.541Z,5.70
2022-08-05T23:57:51.374Z,4.90
